sensor_id;sensor_type;location;lat;lon;timestamp;P1;durP1;ratioP1;P2;durP2;ratioP2
16480;SDS011;44634;54.110;12.138;2023-04-23T00:01:55;8.17;;;7.33;;
16480;SDS011;44634;54.110;12.138;2023-04-23T00:04:26;7.70;;;7.00;;
16480;SDS011;44634;54.110;12.138;2023-04-23T00:06:55;8.83;;;6.70;;
16480;SDS011;44634;54.110;12.138;2023-04-23T00:09:25;7.93;;;7.23;;
16480;SDS011;44634;54.110;12.138;2023-04-23T00:11:56;7.63;;;7.03;;
16480;SDS011;44634;54.110;12.138;2023-04-23T00:14:25;8.53;;;7.60;;
16480;SDS011;44634;54.110;12.138;2023-04-23T00:16:53;7.67;;;7.00;;
16480;SDS011;44634;54.110;12.138;2023-04-23T00:19:21;7.90;;;7.20;;
16480;SDS011;44634;54.110;12.138;2023-04-23T00:21:50;7.80;;;6.97;;
16480;SDS011;44634;54.110;12.138;2023-04-23T00:24:18;8.43;;;7.57;;
16480;SDS011;44634;54.110;12.138;2023-04-23T00:26:46;8.10;;;7.30;;
16480;SDS011;44634;54.110;12.138;2023-04-23T00:29:14;8.47;;;7.60;;
16480;SDS011;44634;54.110;12.138;2023-04-23T00:31:42;8.33;;;7.53;;
16480;SDS011;44634;54.110;12.138;2023-04-23T00:34:09;7.67;;;7.07;;
16480;SDS011;44634;54.110;12.138;2023-04-23T00:36:37;10.27;;;7.30;;
16480;SDS011;44634;54.110;12.138;2023-04-23T00:39:06;8.77;;;7.80;;
16480;SDS011;44634;54.110;12.138;2023-04-23T00:41:35;9.33;;;7.73;;
16480;SDS011;44634;54.110;12.138;2023-04-23T00:44:03;8.07;;;7.30;;
16480;SDS011;44634;54.110;12.138;2023-04-23T00:46:31;10.23;;;7.37;;
16480;SDS011;44634;54.110;12.138;2023-04-23T00:48:58;8.00;;;7.20;;
16480;SDS011;44634;54.110;12.138;2023-04-23T00:51:26;10.17;;;7.63;;
16480;SDS011;44634;54.110;12.138;2023-04-23T00:53:54;8.00;;;7.13;;
16480;SDS011;44634;54.110;12.138;2023-04-23T00:56:24;10.33;;;8.10;;
16480;SDS011;44634;54.110;12.138;2023-04-23T00:58:53;8.63;;;7.67;;
16480;SDS011;44634;54.110;12.138;2023-04-23T01:01:21;7.73;;;7.10;;
16480;SDS011;44634;54.110;12.138;2023-04-23T01:03:50;8.03;;;7.30;;
16480;SDS011;44634;54.110;12.138;2023-04-23T01:06:19;8.30;;;7.50;;
16480;SDS011;44634;54.110;12.138;2023-04-23T01:08:50;12.93;;;8.00;;
16480;SDS011;44634;54.110;12.138;2023-04-23T01:11:18;9.57;;;8.60;;
16480;SDS011;44634;54.110;12.138;2023-04-23T01:13:47;9.67;;;7.70;;
16480;SDS011;44634;54.110;12.138;2023-04-23T01:16:15;9.07;;;8.17;;
16480;SDS011;44634;54.110;12.138;2023-04-23T01:18:43;8.60;;;7.70;;
16480;SDS011;44634;54.110;12.138;2023-04-23T01:21:11;8.00;;;7.03;;
16480;SDS011;44634;54.110;12.138;2023-04-23T01:23:40;8.73;;;7.83;;
16480;SDS011;44634;54.110;12.138;2023-04-23T01:26:08;8.93;;;8.00;;
16480;SDS011;44634;54.110;12.138;2023-04-23T01:28:36;8.90;;;8.10;;
16480;SDS011;44634;54.110;12.138;2023-04-23T01:31:05;8.77;;;7.87;;
16480;SDS011;44634;54.110;12.138;2023-04-23T01:33:33;8.60;;;7.70;;
16480;SDS011;44634;54.110;12.138;2023-04-23T01:36:02;7.90;;;7.20;;
16480;SDS011;44634;54.110;12.138;2023-04-23T01:38:30;8.70;;;7.90;;
16480;SDS011;44634;54.110;12.138;2023-04-23T01:41:15;9.03;;;7.73;;
16480;SDS011;44634;54.110;12.138;2023-04-23T01:43:43;8.60;;;7.80;;
16480;SDS011;44634;54.110;12.138;2023-04-23T01:46:12;8.30;;;7.50;;
16480;SDS011;44634;54.110;12.138;2023-04-23T01:48:40;8.70;;;7.83;;
16480;SDS011;44634;54.110;12.138;2023-04-23T01:51:07;8.80;;;7.60;;
16480;SDS011;44634;54.110;12.138;2023-04-23T01:53:35;8.03;;;7.33;;
16480;SDS011;44634;54.110;12.138;2023-04-23T01:56:03;8.37;;;7.67;;
16480;SDS011;44634;54.110;12.138;2023-04-23T01:58:33;9.03;;;7.70;;
16480;SDS011;44634;54.110;12.138;2023-04-23T02:01:01;7.97;;;7.23;;
16480;SDS011;44634;54.110;12.138;2023-04-23T02:03:29;8.17;;;7.07;;
16480;SDS011;44634;54.110;12.138;2023-04-23T02:05:59;8.33;;;7.47;;
16480;SDS011;44634;54.110;12.138;2023-04-23T02:08:27;8.37;;;6.37;;
16480;SDS011;44634;54.110;12.138;2023-04-23T02:10:55;12.30;;;7.13;;
16480;SDS011;44634;54.110;12.138;2023-04-23T02:13:22;7.50;;;6.80;;
16480;SDS011;44634;54.110;12.138;2023-04-23T02:15:51;7.27;;;6.53;;
16480;SDS011;44634;54.110;12.138;2023-04-23T02:18:19;6.70;;;6.17;;
16480;SDS011;44634;54.110;12.138;2023-04-23T02:20:47;7.93;;;7.07;;
16480;SDS011;44634;54.110;12.138;2023-04-23T02:23:15;8.50;;;6.67;;
16480;SDS011;44634;54.110;12.138;2023-04-23T02:25:42;7.47;;;6.60;;
16480;SDS011;44634;54.110;12.138;2023-04-23T02:28:11;7.10;;;6.40;;
16480;SDS011;44634;54.110;12.138;2023-04-23T02:30:39;7.63;;;6.93;;
16480;SDS011;44634;54.110;12.138;2023-04-23T02:33:12;7.13;;;6.43;;
16480;SDS011;44634;54.110;12.138;2023-04-23T02:35:40;10.33;;;6.50;;
16480;SDS011;44634;54.110;12.138;2023-04-23T02:38:07;8.90;;;7.40;;
16480;SDS011;44634;54.110;12.138;2023-04-23T02:40:35;9.47;;;6.70;;
16480;SDS011;44634;54.110;12.138;2023-04-23T02:43:03;7.47;;;6.87;;
16480;SDS011;44634;54.110;12.138;2023-04-23T02:45:31;9.43;;;7.20;;
16480;SDS011;44634;54.110;12.138;2023-04-23T02:47:58;9.80;;;6.80;;
16480;SDS011;44634;54.110;12.138;2023-04-23T02:50:28;7.70;;;7.00;;
16480;SDS011;44634;54.110;12.138;2023-04-23T02:52:55;8.70;;;7.77;;
16480;SDS011;44634;54.110;12.138;2023-04-23T02:55:23;7.23;;;6.53;;
16480;SDS011;44634;54.110;12.138;2023-04-23T02:57:51;7.00;;;6.33;;
16480;SDS011;44634;54.110;12.138;2023-04-23T03:00:18;7.70;;;6.90;;
16480;SDS011;44634;54.110;12.138;2023-04-23T03:02:46;9.17;;;5.97;;
16480;SDS011;44634;54.110;12.138;2023-04-23T03:05:14;6.60;;;6.00;;
16480;SDS011;44634;54.110;12.138;2023-04-23T03:07:43;6.80;;;6.20;;
16480;SDS011;44634;54.110;12.138;2023-04-23T03:10:11;6.53;;;6.03;;
16480;SDS011;44634;54.110;12.138;2023-04-23T03:12:39;6.63;;;6.03;;
16480;SDS011;44634;54.110;12.138;2023-04-23T03:15:07;6.57;;;6.03;;
16480;SDS011;44634;54.110;12.138;2023-04-23T03:17:36;7.20;;;6.50;;
16480;SDS011;44634;54.110;12.138;2023-04-23T03:20:05;10.43;;;6.90;;
16480;SDS011;44634;54.110;12.138;2023-04-23T03:22:36;8.60;;;7.07;;
16480;SDS011;44634;54.110;12.138;2023-04-23T03:25:06;6.83;;;6.23;;
16480;SDS011;44634;54.110;12.138;2023-04-23T03:27:34;7.37;;;6.03;;
16480;SDS011;44634;54.110;12.138;2023-04-23T03:30:05;6.40;;;5.90;;
16480;SDS011;44634;54.110;12.138;2023-04-23T03:32:35;7.90;;;6.33;;
16480;SDS011;44634;54.110;12.138;2023-04-23T03:35:03;6.87;;;6.23;;
16480;SDS011;44634;54.110;12.138;2023-04-23T03:37:31;7.20;;;6.50;;
16480;SDS011;44634;54.110;12.138;2023-04-23T03:39:59;6.70;;;6.00;;
16480;SDS011;44634;54.110;12.138;2023-04-23T03:42:30;6.20;;;5.60;;
16480;SDS011;44634;54.110;12.138;2023-04-23T03:44:57;6.70;;;6.10;;
16480;SDS011;44634;54.110;12.138;2023-04-23T03:47:25;6.87;;;6.27;;
16480;SDS011;44634;54.110;12.138;2023-04-23T03:49:53;7.10;;;6.40;;
16480;SDS011;44634;54.110;12.138;2023-04-23T03:52:21;6.60;;;6.00;;
16480;SDS011;44634;54.110;12.138;2023-04-23T03:54:49;8.20;;;5.83;;
16480;SDS011;44634;54.110;12.138;2023-04-23T03:57:17;6.77;;;6.10;;
16480;SDS011;44634;54.110;12.138;2023-04-23T03:59:46;7.90;;;6.33;;
16480;SDS011;44634;54.110;12.138;2023-04-23T04:02:14;7.10;;;6.40;;
16480;SDS011;44634;54.110;12.138;2023-04-23T04:04:41;7.80;;;6.97;;
16480;SDS011;44634;54.110;12.138;2023-04-23T04:07:12;9.13;;;7.23;;
16480;SDS011;44634;54.110;12.138;2023-04-23T04:09:40;7.80;;;7.10;;
16480;SDS011;44634;54.110;12.138;2023-04-23T04:12:07;7.47;;;6.73;;
16480;SDS011;44634;54.110;12.138;2023-04-23T04:14:35;7.83;;;7.03;;
16480;SDS011;44634;54.110;12.138;2023-04-23T04:17:04;8.07;;;7.27;;
16480;SDS011;44634;54.110;12.138;2023-04-23T04:19:32;8.13;;;7.23;;
16480;SDS011;44634;54.110;12.138;2023-04-23T04:22:00;8.07;;;7.13;;
16480;SDS011;44634;54.110;12.138;2023-04-23T04:24:28;8.17;;;7.37;;
16480;SDS011;44634;54.110;12.138;2023-04-23T04:26:57;8.43;;;7.13;;
16480;SDS011;44634;54.110;12.138;2023-04-23T04:29:25;8.03;;;7.20;;
16480;SDS011;44634;54.110;12.138;2023-04-23T04:31:53;8.90;;;7.70;;
16480;SDS011;44634;54.110;12.138;2023-04-23T04:34:23;8.00;;;7.30;;
16480;SDS011;44634;54.110;12.138;2023-04-23T04:36:50;8.07;;;7.27;;
16480;SDS011;44634;54.110;12.138;2023-04-23T04:39:19;9.10;;;7.97;;
16480;SDS011;44634;54.110;12.138;2023-04-23T04:41:46;10.80;;;7.77;;
16480;SDS011;44634;54.110;12.138;2023-04-23T04:44:14;8.27;;;7.30;;
16480;SDS011;44634;54.110;12.138;2023-04-23T04:46:42;10.07;;;7.93;;
16480;SDS011;44634;54.110;12.138;2023-04-23T04:49:11;8.80;;;7.93;;
16480;SDS011;44634;54.110;12.138;2023-04-23T04:51:40;8.37;;;7.23;;
16480;SDS011;44634;54.110;12.138;2023-04-23T04:54:08;7.97;;;7.13;;
16480;SDS011;44634;54.110;12.138;2023-04-23T04:56:35;7.80;;;7.07;;
16480;SDS011;44634;54.110;12.138;2023-04-23T04:59:03;8.07;;;7.00;;
16480;SDS011;44634;54.110;12.138;2023-04-23T05:01:31;8.60;;;7.80;;
16480;SDS011;44634;54.110;12.138;2023-04-23T05:04:00;8.17;;;7.20;;
16480;SDS011;44634;54.110;12.138;2023-04-23T05:06:28;7.93;;;7.23;;
16480;SDS011;44634;54.110;12.138;2023-04-23T05:08:58;8.47;;;7.67;;
16480;SDS011;44634;54.110;12.138;2023-04-23T05:11:26;8.60;;;7.80;;
16480;SDS011;44634;54.110;12.138;2023-04-23T05:13:55;8.50;;;7.70;;
16480;SDS011;44634;54.110;12.138;2023-04-23T05:16:23;8.03;;;7.43;;
16480;SDS011;44634;54.110;12.138;2023-04-23T05:18:51;9.23;;;8.23;;
16480;SDS011;44634;54.110;12.138;2023-04-23T05:21:18;8.60;;;7.80;;
16480;SDS011;44634;54.110;12.138;2023-04-23T05:23:46;9.47;;;8.17;;
16480;SDS011;44634;54.110;12.138;2023-04-23T05:26:16;9.23;;;8.33;;
16480;SDS011;44634;54.110;12.138;2023-04-23T05:28:44;9.13;;;8.33;;
16480;SDS011;44634;54.110;12.138;2023-04-23T05:31:12;9.60;;;8.23;;
16480;SDS011;44634;54.110;12.138;2023-04-23T05:33:40;9.73;;;8.70;;
16480;SDS011;44634;54.110;12.138;2023-04-23T05:36:15;9.70;;;8.80;;
16480;SDS011;44634;54.110;12.138;2023-04-23T05:38:43;9.80;;;8.87;;
16480;SDS011;44634;54.110;12.138;2023-04-23T05:41:11;10.93;;;8.97;;
16480;SDS011;44634;54.110;12.138;2023-04-23T05:43:41;10.17;;;9.10;;
16480;SDS011;44634;54.110;12.138;2023-04-23T05:46:09;10.73;;;9.60;;
16480;SDS011;44634;54.110;12.138;2023-04-23T05:48:36;12.57;;;10.10;;
16480;SDS011;44634;54.110;12.138;2023-04-23T05:51:04;12.13;;;10.60;;
16480;SDS011;44634;54.110;12.138;2023-04-23T05:53:32;11.23;;;10.23;;
16480;SDS011;44634;54.110;12.138;2023-04-23T05:56:00;12.60;;;11.37;;
16480;SDS011;44634;54.110;12.138;2023-04-23T05:58:28;12.00;;;10.70;;
16480;SDS011;44634;54.110;12.138;2023-04-23T06:00:57;15.23;;;11.20;;
16480;SDS011;44634;54.110;12.138;2023-04-23T06:03:24;12.77;;;11.47;;
16480;SDS011;44634;54.110;12.138;2023-04-23T06:05:53;11.17;;;10.07;;
16480;SDS011;44634;54.110;12.138;2023-04-23T06:08:21;12.83;;;11.17;;
16480;SDS011;44634;54.110;12.138;2023-04-23T06:10:50;12.43;;;10.83;;
16480;SDS011;44634;54.110;12.138;2023-04-23T06:13:18;11.70;;;10.60;;
16480;SDS011;44634;54.110;12.138;2023-04-23T06:15:46;11.77;;;10.57;;
16480;SDS011;44634;54.110;12.138;2023-04-23T06:18:15;12.77;;;11.47;;
16480;SDS011;44634;54.110;12.138;2023-04-23T06:20:43;12.50;;;11.20;;
16480;SDS011;44634;54.110;12.138;2023-04-23T06:23:11;13.40;;;11.40;;
16480;SDS011;44634;54.110;12.138;2023-04-23T06:25:39;16.67;;;11.60;;
16480;SDS011;44634;54.110;12.138;2023-04-23T06:28:07;13.67;;;12.27;;
16480;SDS011;44634;54.110;12.138;2023-04-23T06:30:34;13.77;;;11.77;;
16480;SDS011;44634;54.110;12.138;2023-04-23T06:33:02;12.13;;;10.87;;
16480;SDS011;44634;54.110;12.138;2023-04-23T06:35:31;13.30;;;11.57;;
16480;SDS011;44634;54.110;12.138;2023-04-23T06:37:59;13.70;;;10.97;;
16480;SDS011;44634;54.110;12.138;2023-04-23T06:40:27;16.13;;;11.87;;
16480;SDS011;44634;54.110;12.138;2023-04-23T06:42:55;32.13;;;23.87;;
16480;SDS011;44634;54.110;12.138;2023-04-23T06:45:22;24.70;;;18.70;;
16480;SDS011;44634;54.110;12.138;2023-04-23T06:47:50;28.23;;;20.63;;
16480;SDS011;44634;54.110;12.138;2023-04-23T06:50:18;28.83;;;20.80;;
16480;SDS011;44634;54.110;12.138;2023-04-23T06:52:47;28.20;;;20.70;;
16480;SDS011;44634;54.110;12.138;2023-04-23T06:55:15;29.33;;;20.30;;
16480;SDS011;44634;54.110;12.138;2023-04-23T06:57:43;27.77;;;20.10;;
16480;SDS011;44634;54.110;12.138;2023-04-23T07:00:11;23.60;;;18.17;;
16480;SDS011;44634;54.110;12.138;2023-04-23T07:02:39;28.50;;;19.23;;
16480;SDS011;44634;54.110;12.138;2023-04-23T07:05:08;22.90;;;17.83;;
16480;SDS011;44634;54.110;12.138;2023-04-23T07:07:36;26.20;;;18.70;;
16480;SDS011;44634;54.110;12.138;2023-04-23T07:10:08;25.00;;;17.43;;
16480;SDS011;44634;54.110;12.138;2023-04-23T07:12:37;23.30;;;17.20;;
16480;SDS011;44634;54.110;12.138;2023-04-23T07:15:06;26.73;;;18.83;;
16480;SDS011;44634;54.110;12.138;2023-04-23T07:17:35;22.10;;;16.50;;
16480;SDS011;44634;54.110;12.138;2023-04-23T07:20:03;24.03;;;17.07;;
16480;SDS011;44634;54.110;12.138;2023-04-23T07:22:31;23.73;;;16.53;;
16480;SDS011;44634;54.110;12.138;2023-04-23T07:25:00;20.77;;;16.27;;
16480;SDS011;44634;54.110;12.138;2023-04-23T07:27:30;19.60;;;14.93;;
16480;SDS011;44634;54.110;12.138;2023-04-23T07:29:58;23.10;;;15.77;;
16480;SDS011;44634;54.110;12.138;2023-04-23T07:32:27;21.57;;;15.97;;
16480;SDS011;44634;54.110;12.138;2023-04-23T07:34:55;21.80;;;14.23;;
16480;SDS011;44634;54.110;12.138;2023-04-23T07:37:22;19.50;;;13.47;;
16480;SDS011;44634;54.110;12.138;2023-04-23T07:39:50;20.60;;;14.73;;
16480;SDS011;44634;54.110;12.138;2023-04-23T07:42:19;23.47;;;15.50;;
16480;SDS011;44634;54.110;12.138;2023-04-23T07:44:48;21.10;;;13.53;;
16480;SDS011;44634;54.110;12.138;2023-04-23T07:47:16;23.27;;;14.03;;
16480;SDS011;44634;54.110;12.138;2023-04-23T07:49:43;20.17;;;13.93;;
16480;SDS011;44634;54.110;12.138;2023-04-23T07:52:11;19.80;;;12.67;;
16480;SDS011;44634;54.110;12.138;2023-04-23T07:54:40;19.70;;;13.00;;
16480;SDS011;44634;54.110;12.138;2023-04-23T07:57:08;19.07;;;11.77;;
16480;SDS011;44634;54.110;12.138;2023-04-23T07:59:37;19.07;;;12.87;;
16480;SDS011;44634;54.110;12.138;2023-04-23T08:02:07;19.03;;;12.00;;
16480;SDS011;44634;54.110;12.138;2023-04-23T08:04:35;18.87;;;12.03;;
16480;SDS011;44634;54.110;12.138;2023-04-23T08:07:03;18.60;;;11.30;;
16480;SDS011;44634;54.110;12.138;2023-04-23T08:09:31;20.87;;;11.27;;
16480;SDS011;44634;54.110;12.138;2023-04-23T08:11:58;17.90;;;11.23;;
16480;SDS011;44634;54.110;12.138;2023-04-23T08:14:27;20.67;;;11.10;;
16480;SDS011;44634;54.110;12.138;2023-04-23T08:16:54;14.73;;;10.63;;
16480;SDS011;44634;54.110;12.138;2023-04-23T08:19:24;19.33;;;10.93;;
16480;SDS011;44634;54.110;12.138;2023-04-23T08:21:56;15.63;;;9.67;;
16480;SDS011;44634;54.110;12.138;2023-04-23T08:24:24;14.10;;;9.13;;
16480;SDS011;44634;54.110;12.138;2023-04-23T08:26:52;13.70;;;9.80;;
16480;SDS011;44634;54.110;12.138;2023-04-23T08:29:20;11.33;;;8.63;;
16480;SDS011;44634;54.110;12.138;2023-04-23T08:31:48;14.13;;;9.20;;
16480;SDS011;44634;54.110;12.138;2023-04-23T08:34:16;14.73;;;8.50;;
16480;SDS011;44634;54.110;12.138;2023-04-23T08:36:45;16.70;;;9.20;;
16480;SDS011;44634;54.110;12.138;2023-04-23T08:39:14;10.93;;;8.43;;
16480;SDS011;44634;54.110;12.138;2023-04-23T08:41:42;12.50;;;8.43;;
16480;SDS011;44634;54.110;12.138;2023-04-23T08:44:16;13.27;;;8.40;;
16480;SDS011;44634;54.110;12.138;2023-04-23T08:46:45;10.13;;;7.80;;
16480;SDS011;44634;54.110;12.138;2023-04-23T08:49:13;10.60;;;7.70;;
16480;SDS011;44634;54.110;12.138;2023-04-23T08:51:47;10.10;;;7.77;;
16480;SDS011;44634;54.110;12.138;2023-04-23T08:54:18;8.03;;;6.57;;
16480;SDS011;44634;54.110;12.138;2023-04-23T08:56:51;11.20;;;7.20;;
16480;SDS011;44634;54.110;12.138;2023-04-23T08:59:22;8.37;;;6.73;;
16480;SDS011;44634;54.110;12.138;2023-04-23T09:01:52;8.23;;;5.87;;
16480;SDS011;44634;54.110;12.138;2023-04-23T09:04:20;8.07;;;6.53;;
16480;SDS011;44634;54.110;12.138;2023-04-23T09:06:51;9.37;;;6.27;;
16480;SDS011;44634;54.110;12.138;2023-04-23T09:09:19;10.30;;;6.20;;
16480;SDS011;44634;54.110;12.138;2023-04-23T09:11:49;6.17;;;5.37;;
16480;SDS011;44634;54.110;12.138;2023-04-23T09:14:21;7.20;;;5.47;;
16480;SDS011;44634;54.110;12.138;2023-04-23T09:16:50;6.00;;;5.30;;
16480;SDS011;44634;54.110;12.138;2023-04-23T09:19:19;8.30;;;5.40;;
16480;SDS011;44634;54.110;12.138;2023-04-23T09:21:46;5.50;;;5.00;;
16480;SDS011;44634;54.110;12.138;2023-04-23T09:24:15;7.23;;;6.00;;
16480;SDS011;44634;54.110;12.138;2023-04-23T09:26:44;6.17;;;5.57;;
16480;SDS011;44634;54.110;12.138;2023-04-23T09:29:12;7.07;;;5.97;;
16480;SDS011;44634;54.110;12.138;2023-04-23T09:31:44;7.43;;;5.80;;
16480;SDS011;44634;54.110;12.138;2023-04-23T09:34:13;7.07;;;5.73;;
16480;SDS011;44634;54.110;12.138;2023-04-23T09:36:43;7.10;;;6.40;;
16480;SDS011;44634;54.110;12.138;2023-04-23T09:39:11;8.57;;;6.53;;
16480;SDS011;44634;54.110;12.138;2023-04-23T09:41:41;8.90;;;6.57;;
16480;SDS011;44634;54.110;12.138;2023-04-23T09:44:11;7.63;;;6.57;;
16480;SDS011;44634;54.110;12.138;2023-04-23T09:46:40;8.03;;;6.60;;
16480;SDS011;44634;54.110;12.138;2023-04-23T09:49:09;7.23;;;5.90;;
16480;SDS011;44634;54.110;12.138;2023-04-23T09:51:38;8.63;;;6.67;;
16480;SDS011;44634;54.110;12.138;2023-04-23T09:54:10;8.63;;;7.13;;
16480;SDS011;44634;54.110;12.138;2023-04-23T09:56:39;9.57;;;7.10;;
16480;SDS011;44634;54.110;12.138;2023-04-23T10:02:13;7.80;;;6.50;;
16480;SDS011;44634;54.110;12.138;2023-04-23T10:04:42;8.60;;;6.53;;
16480;SDS011;44634;54.110;12.138;2023-04-23T10:07:10;8.20;;;7.23;;
16480;SDS011;44634;54.110;12.138;2023-04-23T10:09:42;7.53;;;6.73;;
16480;SDS011;44634;54.110;12.138;2023-04-23T10:12:10;6.67;;;6.07;;
16480;SDS011;44634;54.110;12.138;2023-04-23T10:15:00;12.10;;;9.73;;
16480;SDS011;44634;54.110;12.138;2023-04-23T10:17:30;7.80;;;6.93;;
16480;SDS011;44634;54.110;12.138;2023-04-23T10:19:58;8.37;;;6.30;;
16480;SDS011;44634;54.110;12.138;2023-04-23T10:22:28;8.03;;;6.60;;
16480;SDS011;44634;54.110;12.138;2023-04-23T10:24:56;6.80;;;6.20;;
16480;SDS011;44634;54.110;12.138;2023-04-23T10:27:27;6.70;;;6.10;;
16480;SDS011;44634;54.110;12.138;2023-04-23T10:30:15;6.30;;;5.57;;
16480;SDS011;44634;54.110;12.138;2023-04-23T10:32:43;7.60;;;5.70;;
16480;SDS011;44634;54.110;12.138;2023-04-23T10:35:14;7.17;;;6.23;;
16480;SDS011;44634;54.110;12.138;2023-04-23T10:37:42;7.23;;;5.97;;
16480;SDS011;44634;54.110;12.138;2023-04-23T10:40:12;6.30;;;5.30;;
16480;SDS011;44634;54.110;12.138;2023-04-23T10:42:41;8.60;;;5.40;;
16480;SDS011;44634;54.110;12.138;2023-04-23T10:45:13;8.40;;;5.80;;
16480;SDS011;44634;54.110;12.138;2023-04-23T10:47:46;6.00;;;5.20;;
16480;SDS011;44634;54.110;12.138;2023-04-23T10:50:17;5.50;;;5.00;;
16480;SDS011;44634;54.110;12.138;2023-04-23T10:52:48;4.70;;;4.30;;
16480;SDS011;44634;54.110;12.138;2023-04-23T10:55:18;5.13;;;4.63;;
16480;SDS011;44634;54.110;12.138;2023-04-23T10:57:54;6.13;;;4.70;;
16480;SDS011;44634;54.110;12.138;2023-04-23T11:00:27;5.83;;;5.00;;
16480;SDS011;44634;54.110;12.138;2023-04-23T11:02:57;5.20;;;4.70;;
16480;SDS011;44634;54.110;12.138;2023-04-23T11:05:28;4.47;;;4.07;;
16480;SDS011;44634;54.110;12.138;2023-04-23T11:08:02;4.53;;;4.23;;
16480;SDS011;44634;54.110;12.138;2023-04-23T11:10:49;3.80;;;3.60;;
16480;SDS011;44634;54.110;12.138;2023-04-23T11:13:24;4.93;;;4.17;;
16480;SDS011;44634;54.110;12.138;2023-04-23T11:16:11;4.07;;;3.77;;
16480;SDS011;44634;54.110;12.138;2023-04-23T11:19:01;4.37;;;4.00;;
16480;SDS011;44634;54.110;12.138;2023-04-23T11:24:26;4.60;;;4.20;;
16480;SDS011;44634;54.110;12.138;2023-04-23T11:26:54;4.17;;;3.70;;
16480;SDS011;44634;54.110;12.138;2023-04-23T11:29:23;3.90;;;3.60;;
16480;SDS011;44634;54.110;12.138;2023-04-23T11:31:53;9.40;;;8.07;;
16480;SDS011;44634;54.110;12.138;2023-04-23T11:34:25;3.70;;;3.40;;
16480;SDS011;44634;54.110;12.138;2023-04-23T11:36:54;4.23;;;3.77;;
16480;SDS011;44634;54.110;12.138;2023-04-23T11:39:25;3.50;;;3.20;;
16480;SDS011;44634;54.110;12.138;2023-04-23T11:41:53;3.43;;;3.23;;
16480;SDS011;44634;54.110;12.138;2023-04-23T11:44:22;3.90;;;3.60;;
16480;SDS011;44634;54.110;12.138;2023-04-23T11:46:49;3.40;;;3.20;;
16480;SDS011;44634;54.110;12.138;2023-04-23T11:49:17;3.70;;;3.50;;
16480;SDS011;44634;54.110;12.138;2023-04-23T11:51:47;4.00;;;3.70;;
16480;SDS011;44634;54.110;12.138;2023-04-23T11:54:15;3.93;;;3.40;;
16480;SDS011;44634;54.110;12.138;2023-04-23T11:56:43;3.90;;;3.60;;
16480;SDS011;44634;54.110;12.138;2023-04-23T11:59:11;3.77;;;3.57;;
16480;SDS011;44634;54.110;12.138;2023-04-23T12:01:39;3.40;;;3.20;;
16480;SDS011;44634;54.110;12.138;2023-04-23T12:04:11;3.87;;;3.53;;
16480;SDS011;44634;54.110;12.138;2023-04-23T12:06:41;3.80;;;3.50;;
16480;SDS011;44634;54.110;12.138;2023-04-23T12:09:12;3.50;;;3.30;;
16480;SDS011;44634;54.110;12.138;2023-04-23T12:11:41;3.13;;;3.03;;
16480;SDS011;44634;54.110;12.138;2023-04-23T12:14:11;3.60;;;3.30;;
16480;SDS011;44634;54.110;12.138;2023-04-23T12:16:41;3.50;;;3.20;;
16480;SDS011;44634;54.110;12.138;2023-04-23T12:19:11;3.43;;;3.20;;
16480;SDS011;44634;54.110;12.138;2023-04-23T12:21:46;3.27;;;3.13;;
16480;SDS011;44634;54.110;12.138;2023-04-23T12:24:17;3.30;;;3.10;;
16480;SDS011;44634;54.110;12.138;2023-04-23T12:26:44;3.20;;;3.10;;
16480;SDS011;44634;54.110;12.138;2023-04-23T12:29:16;3.80;;;3.50;;
16480;SDS011;44634;54.110;12.138;2023-04-23T12:31:44;3.20;;;3.10;;
16480;SDS011;44634;54.110;12.138;2023-04-23T12:34:12;3.13;;;3.03;;
16480;SDS011;44634;54.110;12.138;2023-04-23T12:36:43;2.93;;;2.83;;
16480;SDS011;44634;54.110;12.138;2023-04-23T12:39:24;4.40;;;4.07;;
16480;SDS011;44634;54.110;12.138;2023-04-23T12:41:55;3.27;;;3.10;;
16480;SDS011;44634;54.110;12.138;2023-04-23T12:44:25;3.60;;;3.30;;
16480;SDS011;44634;54.110;12.138;2023-04-23T12:46:53;3.93;;;3.63;;
16480;SDS011;44634;54.110;12.138;2023-04-23T12:49:23;5.43;;;4.93;;
16480;SDS011;44634;54.110;12.138;2023-04-23T12:51:52;3.40;;;3.20;;
16480;SDS011;44634;54.110;12.138;2023-04-23T12:54:25;3.67;;;3.37;;
16480;SDS011;44634;54.110;12.138;2023-04-23T12:56:54;3.03;;;2.93;;
16480;SDS011;44634;54.110;12.138;2023-04-23T12:59:22;3.03;;;2.83;;
16480;SDS011;44634;54.110;12.138;2023-04-23T13:01:50;3.23;;;3.03;;
16480;SDS011;44634;54.110;12.138;2023-04-23T13:04:18;3.40;;;3.20;;
16480;SDS011;44634;54.110;12.138;2023-04-23T13:06:46;3.50;;;3.30;;
16480;SDS011;44634;54.110;12.138;2023-04-23T13:09:14;3.20;;;3.00;;
16480;SDS011;44634;54.110;12.138;2023-04-23T13:11:43;3.40;;;3.30;;
16480;SDS011;44634;54.110;12.138;2023-04-23T13:14:14;3.63;;;3.33;;
16480;SDS011;44634;54.110;12.138;2023-04-23T13:16:42;3.17;;;2.97;;
16480;SDS011;44634;54.110;12.138;2023-04-23T13:19:10;3.73;;;3.00;;
16480;SDS011;44634;54.110;12.138;2023-04-23T13:21:39;6.53;;;5.93;;
16480;SDS011;44634;54.110;12.138;2023-04-23T13:24:06;2.93;;;2.73;;
16480;SDS011;44634;54.110;12.138;2023-04-23T13:26:34;3.53;;;3.33;;
16480;SDS011;44634;54.110;12.138;2023-04-23T13:29:03;3.33;;;3.13;;
16480;SDS011;44634;54.110;12.138;2023-04-23T13:31:32;4.60;;;4.30;;
16480;SDS011;44634;54.110;12.138;2023-04-23T13:34:00;3.37;;;3.17;;
16480;SDS011;44634;54.110;12.138;2023-04-23T13:36:28;3.13;;;3.03;;
16480;SDS011;44634;54.110;12.138;2023-04-23T13:38:56;4.13;;;3.20;;
16480;SDS011;44634;54.110;12.138;2023-04-23T13:41:24;3.00;;;2.90;;
16480;SDS011;44634;54.110;12.138;2023-04-23T13:43:51;3.10;;;2.90;;
16480;SDS011;44634;54.110;12.138;2023-04-23T13:46:21;3.27;;;3.17;;
16480;SDS011;44634;54.110;12.138;2023-04-23T13:48:48;3.50;;;3.30;;
16480;SDS011;44634;54.110;12.138;2023-04-23T13:51:16;3.93;;;3.73;;
16480;SDS011;44634;54.110;12.138;2023-04-23T13:54:00;4.03;;;3.73;;
16480;SDS011;44634;54.110;12.138;2023-04-23T13:56:28;3.73;;;3.60;;
16480;SDS011;44634;54.110;12.138;2023-04-23T13:58:57;3.60;;;3.40;;
16480;SDS011;44634;54.110;12.138;2023-04-23T14:01:46;3.67;;;3.47;;
16480;SDS011;44634;54.110;12.138;2023-04-23T14:04:15;4.83;;;4.43;;
16480;SDS011;44634;54.110;12.138;2023-04-23T14:06:43;3.70;;;3.50;;
16480;SDS011;44634;54.110;12.138;2023-04-23T14:09:11;4.50;;;4.13;;
16480;SDS011;44634;54.110;12.138;2023-04-23T14:11:39;3.10;;;3.00;;
16480;SDS011;44634;54.110;12.138;2023-04-23T14:14:07;3.43;;;3.23;;
16480;SDS011;44634;54.110;12.138;2023-04-23T14:16:34;8.07;;;7.07;;
16480;SDS011;44634;54.110;12.138;2023-04-23T14:19:04;20.67;;;15.73;;
16480;SDS011;44634;54.110;12.138;2023-04-23T14:21:32;6.97;;;6.37;;
16480;SDS011;44634;54.110;12.138;2023-04-23T14:24:01;4.17;;;3.97;;
16480;SDS011;44634;54.110;12.138;2023-04-23T14:26:35;3.80;;;3.60;;
16480;SDS011;44634;54.110;12.138;2023-04-23T14:29:18;3.67;;;3.40;;
16480;SDS011;44634;54.110;12.138;2023-04-23T14:31:50;3.53;;;3.33;;
16480;SDS011;44634;54.110;12.138;2023-04-23T14:34:20;3.60;;;3.43;;
16480;SDS011;44634;54.110;12.138;2023-04-23T14:36:48;4.00;;;3.70;;
16480;SDS011;44634;54.110;12.138;2023-04-23T14:39:18;4.30;;;4.00;;
16480;SDS011;44634;54.110;12.138;2023-04-23T14:41:46;3.43;;;3.23;;
16480;SDS011;44634;54.110;12.138;2023-04-23T14:44:14;3.90;;;3.60;;
16480;SDS011;44634;54.110;12.138;2023-04-23T14:46:41;4.30;;;4.00;;